Главная страница
METAR-TAF:

METAR-TAF

Аэропорты :

Orange County Airport

Монтгомери, Нью-Йорк, США

широта: 41-30-33N, долгота: 074-15-54W, высота над уровнем моря: 111 м

Текущие метеонаблюдения

Эта сводка был подготовлена 21 минут назад, в 11:13 UTC
Ветер 3 Узел от северный
Температура 21°C
Влажность 100%
Давление 1017 hPa
Видимость: 8.0 км
Рассеянная облачность на высоте 1500 фута
Сплошная облачность на высоте 2300 фута
дымка

METAR: KMGJ 171113Z AUTO 01003KT 5SM BR BKN015 OVC023 21/21 A3003 RMK AO2 T02110211

Время: 07:34 (11:34 UTC)


TAF: отсутствует

Метеонаблюдения и прогнозы для более 4000 аэропортов (сводки METAR и TAF).

Имеющиеся станции представлены на карте желтыми и красными точками.

Чтобы увидеть название станции, наведите на нее мышь.

Затем щелкните, чтобы увидеть метеонаблюдения и метеопрогнозы.

Управление картой: чтобы увеличить масштаб, щелкните зеленые кнопки с черным крестиком; чтобы уменьшить масштаб, щелкните зеленую кнопку с тире; для просмотра соседних карт щелкайте зеленые стрелки.


METAR-TAF: